createdAt,value
2019-01-16T00:01:34.999Z,11.13
2019-01-16T00:06:46.248Z,10.90
2019-01-16T00:11:58.758Z,9.90
2019-01-16T00:16:57.647Z,9.73
2019-01-16T00:21:56.430Z,9.50
2019-01-16T00:27:08.616Z,9.20
2019-01-16T00:32:22.843Z,9.20
2019-01-16T00:37:19.108Z,8.10
2019-01-16T00:42:18.367Z,8.00
2019-01-16T00:47:20.307Z,8.30
2019-01-16T00:52:19.398Z,8.57
2019-01-16T00:57:15.625Z,8.47
2019-01-16T01:02:10.131Z,7.93
2019-01-16T01:07:09.213Z,9.80
2019-01-16T01:12:05.616Z,9.00
2019-01-16T01:17:04.595Z,9.30
2019-01-16T01:22:16.751Z,9.10
2019-01-16T01:27:18.949Z,10.00
2019-01-16T01:32:13.302Z,10.70
2019-01-16T01:37:09.691Z,9.70
2019-01-16T01:42:08.894Z,9.43
2019-01-16T01:47:05.113Z,12.33
2019-01-16T01:52:05.462Z,11.83
2019-01-16T01:57:04.514Z,10.27
2019-01-16T02:02:09.235Z,11.20
2019-01-16T02:07:20.454Z,11.73
2019-01-16T02:12:22.193Z,11.90
2019-01-16T02:17:31.875Z,10.50
2019-01-16T02:22:28.125Z,10.50
2019-01-16T02:27:24.529Z,10.53
2019-01-16T02:32:25.013Z,10.50
2019-01-16T02:37:21.237Z,10.90
2019-01-16T02:42:33.311Z,11.03
2019-01-16T02:47:35.225Z,11.90
2019-01-16T02:52:43.354Z,12.07
2019-01-16T02:57:39.592Z,11.60
2019-01-16T03:02:44.431Z,12.93
2019-01-16T03:07:40.764Z,12.97
2019-01-16T03:12:43.931Z,14.20
2019-01-16T03:17:38.294Z,15.03
2019-01-16T03:22:34.536Z,14.90
2019-01-16T03:27:46.795Z,15.53
2019-01-16T03:32:48.752Z,17.27
2019-01-16T03:37:47.991Z,16.60
2019-01-16T03:43:00.152Z,16.60
2019-01-16T03:48:03.330Z,15.50
2019-01-16T03:52:59.576Z,17.87
2019-01-16T03:58:11.850Z,18.40
2019-01-16T04:03:24.108Z,19.17
2019-01-16T04:08:38.336Z,19.20
2019-01-16T04:13:50.864Z,18.87
2019-01-16T04:19:03.248Z,15.53
2019-01-16T04:24:05.362Z,16.93
2019-01-16T04:29:04.461Z,15.73
2019-01-16T04:34:12.534Z,17.47
2019-01-16T04:39:08.469Z,15.87
2019-01-16T04:44:10.668Z,18.00
2019-01-16T04:49:09.665Z,20.03
2019-01-16T04:54:22.451Z,16.97
2019-01-16T04:59:21.454Z,20.07
2019-01-16T05:04:20.138Z,19.67
2019-01-16T05:09:20.202Z,16.03
2019-01-16T05:14:20.276Z,18.20
2019-01-16T05:19:25.114Z,16.27
2019-01-16T05:24:21.362Z,15.50
2019-01-16T05:29:33.578Z,14.53
2019-01-16T05:34:39.707Z,16.27
2019-01-16T05:39:35.951Z,15.00
2019-01-16T05:44:38.295Z,13.90
2019-01-16T05:49:46.959Z,19.27
2019-01-16T05:54:55.986Z,16.93
2019-01-16T05:59:52.221Z,17.73
2019-01-16T06:04:53.904Z,17.13
2019-01-16T06:10:08.236Z,13.47
2019-01-16T06:15:20.599Z,15.23
2019-01-16T06:20:25.997Z,14.93
2019-01-16T06:25:24.780Z,16.00
2019-01-16T06:30:21.006Z,17.27
2019-01-16T06:35:17.244Z,15.50
2019-01-16T06:40:13.816Z,16.57
2019-01-16T06:45:11.678Z,15.30
2019-01-16T06:50:16.629Z,15.27
2019-01-16T06:55:21.041Z,15.00
2019-01-16T07:00:26.706Z,14.27
2019-01-16T07:05:22.928Z,13.93
2019-01-16T07:10:34.139Z,14.87
2019-01-16T07:15:42.537Z,15.97
2019-01-16T07:20:38.844Z,16.03
2019-01-16T07:25:51.307Z,18.07
2019-01-16T07:30:50.346Z,17.27
2019-01-16T07:36:01.664Z,18.87
2019-01-16T07:41:13.526Z,22.37
2019-01-16T07:46:10.161Z,20.40
2019-01-16T07:51:12.755Z,18.63
2019-01-16T07:56:24.821Z,19.43
2019-01-16T08:01:29.704Z,19.03
2019-01-16T08:06:26.077Z,19.47
2019-01-16T08:11:37.015Z,19.27
2019-01-16T08:16:44.948Z,19.77
2019-01-16T08:21:40.395Z,22.10
2019-01-16T08:26:36.658Z,21.23
2019-01-16T08:31:33.158Z,20.30
2019-01-16T08:36:51.911Z,20.10
2019-01-16T08:41:54.468Z,19.53
2019-01-16T08:46:59.619Z,20.13
2019-01-16T08:52:08.077Z,20.33
2019-01-16T08:57:04.271Z,19.17
2019-01-16T09:02:18.655Z,19.77
2019-01-16T09:07:29.870Z,20.57
2019-01-16T09:12:27.592Z,18.77
2019-01-16T09:17:32.571Z,19.43
2019-01-16T09:22:29.642Z,20.10
2019-01-16T09:27:38.888Z,19.33
2019-01-16T09:32:51.285Z,23.98
2019-01-16T09:37:50.491Z,18.03
2019-01-16T09:42:59.270Z,17.27
2019-01-16T09:48:01.379Z,15.47
2019-01-16T09:53:00.326Z,16.47
2019-01-16T09:58:04.711Z,15.70
2019-01-16T10:03:18.772Z,15.70
2019-01-16T10:08:17.643Z,15.83
2019-01-16T10:13:19.012Z,15.60
2019-01-16T10:18:16.948Z,14.97
2019-01-16T10:23:14.838Z,16.80
2019-01-16T10:28:19.670Z,16.43
2019-01-16T10:33:16.010Z,15.77
2019-01-16T10:38:22.180Z,16.77
2019-01-16T10:43:35.879Z,15.67
2019-01-16T10:48:36.336Z,15.20
2019-01-16T10:53:39.330Z,15.83
2019-01-16T10:58:51.763Z,16.23
2019-01-16T11:03:53.632Z,15.20
2019-01-16T11:08:55.659Z,15.90
2019-01-16T11:13:55.080Z,15.53
2019-01-16T11:18:53.738Z,15.77
2019-01-16T11:23:58.572Z,15.50
2019-01-16T11:28:56.724Z,16.27
2019-01-16T11:33:58.766Z,15.57
2019-01-16T11:38:53.885Z,14.03
2019-01-16T11:44:02.329Z,16.33
2019-01-16T11:48:57.783Z,15.30
2019-01-16T11:53:54.153Z,14.60
2019-01-16T11:58:52.782Z,15.03
2019-01-16T12:03:52.153Z,14.33
2019-01-16T12:08:49.332Z,16.03
2019-01-16T12:13:46.126Z,16.20
2019-01-16T12:18:57.505Z,16.80
2019-01-16T12:24:09.569Z,17.33
2019-01-16T12:29:23.472Z,17.27
2019-01-16T12:34:22.680Z,16.07
2019-01-16T12:39:34.858Z,15.87
2019-01-16T12:44:31.989Z,15.63
2019-01-16T12:49:29.076Z,15.30
2019-01-16T12:54:23.599Z,15.67
2019-01-16T12:59:19.847Z,15.60
2019-01-16T13:04:31.061Z,18.03
2019-01-16T13:09:29.995Z,14.23
2019-01-16T13:14:44.525Z,13.13
2019-01-16T13:19:46.429Z,13.00
2019-01-16T13:24:42.716Z,11.80
2019-01-16T13:29:41.812Z,11.80
2019-01-16T13:34:43.725Z,11.63
2019-01-16T13:39:42.985Z,11.07
2019-01-16T13:44:39.524Z,11.40
2019-01-16T13:49:41.789Z,12.17
2019-01-16T13:54:38.147Z,11.63
2019-01-16T13:59:35.342Z,11.80
2019-01-16T14:04:31.834Z,13.43
2019-01-16T14:09:33.629Z,11.50
2019-01-16T14:14:41.824Z,12.60
2019-01-16T14:19:47.541Z,11.40
2019-01-16T14:24:41.882Z,12.03
2019-01-16T14:29:38.343Z,10.90
2019-01-16T14:34:40.066Z,11.13
2019-01-16T14:39:45.611Z,10.70
2019-01-16T14:44:57.467Z,10.90
2019-01-16T14:49:56.558Z,10.70
2019-01-16T14:55:07.899Z,10.47
2019-01-16T15:00:10.153Z,10.47
2019-01-16T15:05:14.815Z,10.07
2019-01-16T15:10:27.700Z,11.10
2019-01-16T15:15:25.007Z,9.33
2019-01-16T15:20:34.055Z,10.00
2019-01-16T15:25:45.338Z,8.93
2019-01-16T15:30:50.132Z,9.07
2019-01-16T15:35:50.777Z,10.57
2019-01-16T15:40:48.327Z,9.70
2019-01-16T15:45:59.077Z,9.53
2019-01-16T15:51:13.468Z,9.63
2019-01-16T15:56:27.880Z,9.97
2019-01-16T16:01:38.893Z,10.13
2019-01-16T16:06:39.599Z,9.87
2019-01-16T16:11:55.770Z,10.40
2019-01-16T16:16:53.361Z,9.80
2019-01-16T16:22:01.139Z,11.40
2019-01-16T16:27:07.740Z,10.20
2019-01-16T16:32:08.044Z,10.47
2019-01-16T16:37:31.086Z,9.63
2019-01-16T16:42:44.676Z,11.40
2019-01-16T16:47:58.269Z,10.90
2019-01-16T16:53:13.932Z,11.50
2019-01-16T16:58:15.056Z,11.83
2019-01-16T17:03:17.401Z,11.80
2019-01-16T17:08:50.557Z,11.57
2019-01-16T17:13:48.936Z,11.03
2019-01-16T17:18:52.641Z,11.13
2019-01-16T17:23:57.381Z,12.83
2019-01-16T17:29:02.534Z,11.50
2019-01-16T17:34:01.177Z,11.93
2019-01-16T17:39:12.051Z,12.00
2019-01-16T17:44:17.428Z,12.47
2019-01-16T17:49:16.342Z,13.53
2019-01-16T17:54:28.890Z,14.23
2019-01-16T17:59:32.229Z,13.83
2019-01-16T18:04:28.458Z,12.37
2019-01-16T18:09:24.682Z,18.30
2019-01-16T18:14:23.407Z,14.10
2019-01-16T18:19:23.250Z,13.23
2019-01-16T18:24:31.155Z,13.87
2019-01-16T18:29:33.113Z,13.60
2019-01-16T18:34:27.482Z,12.53
2019-01-16T18:39:23.766Z,13.27
2019-01-16T18:44:31.952Z,14.67
2019-01-16T18:49:30.655Z,16.43
2019-01-16T18:54:29.696Z,19.10
2019-01-16T18:59:40.986Z,15.70
2019-01-16T19:04:52.006Z,15.13
2019-01-16T19:10:06.056Z,16.93
2019-01-16T19:15:14.453Z,19.73
2019-01-16T19:20:16.950Z,18.47
2019-01-16T19:25:22.078Z,19.27
2019-01-16T19:30:33.974Z,20.13
2019-01-16T19:35:31.360Z,17.93
2019-01-16T19:40:43.618Z,16.47
2019-01-16T19:45:56.055Z,18.03
2019-01-16T19:51:07.297Z,18.43
2019-01-16T19:56:01.669Z,17.53
2019-01-16T20:00:57.956Z,17.07
2019-01-16T20:06:10.592Z,17.47
2019-01-16T20:11:09.933Z,17.93
2019-01-16T20:16:12.388Z,17.83
2019-01-16T20:21:24.775Z,18.37
2019-01-16T20:26:23.889Z,18.00
2019-01-16T20:31:20.187Z,17.63
2019-01-16T20:36:25.173Z,17.80
2019-01-16T20:41:30.109Z,17.77
2019-01-16T20:46:29.365Z,19.67
2019-01-16T20:51:25.586Z,19.50
2019-01-16T20:56:24.762Z,19.03
2019-01-16T21:01:23.844Z,21.00
2019-01-16T21:06:20.894Z,21.07
2019-01-16T21:11:19.819Z,21.53
2019-01-16T21:16:21.984Z,20.50
2019-01-16T21:21:18.370Z,21.60
2019-01-16T21:26:29.336Z,19.93
2019-01-16T21:31:25.610Z,20.17
2019-01-16T21:36:33.887Z,18.77
2019-01-16T21:41:34.160Z,18.07
2019-01-16T21:46:33.407Z,17.60
2019-01-16T21:51:44.631Z,17.73
2019-01-16T21:56:57.386Z,19.23
2019-01-16T22:01:53.619Z,18.17
2019-01-16T22:06:49.932Z,19.50
2019-01-16T22:12:04.127Z,18.20
2019-01-16T22:17:00.371Z,18.73
2019-01-16T22:21:56.599Z,19.13
2019-01-16T22:26:55.627Z,18.80
2019-01-16T22:31:54.714Z,18.33
2019-01-16T22:37:06.218Z,16.77
2019-01-16T22:42:02.435Z,18.13
2019-01-16T22:47:01.571Z,18.20
2019-01-16T22:51:57.808Z,18.73
2019-01-16T22:56:59.730Z,17.40
2019-01-16T23:01:56.019Z,16.80
2019-01-16T23:06:52.321Z,17.20
2019-01-16T23:11:51.577Z,15.67
2019-01-16T23:16:47.813Z,16.97
2019-01-16T23:21:44.073Z,16.67
2019-01-16T23:26:47.339Z,15.90
2019-01-16T23:31:52.445Z,15.77
2019-01-16T23:36:49.214Z,15.40
2019-01-16T23:41:51.168Z,14.83
2019-01-16T23:46:56.603Z,13.53
2019-01-16T23:51:52.947Z,12.07
2019-01-16T23:56:51.602Z,10.23
